X  Sluiten METAR luchtvaart weer gegevens      EDDG Münster Osnabrück Airport
Temperatuur
5°C Temperatuur
2°C Dauwpunt
81% Vochtigheid



Wind
21 KM/U
13 MPH
6 M/S
11 KTS



270°
West
Huidig weer

Veel verspreide wolken Veel verspreide wolken
Luchtdruk 1020.92 (hPa) - 30.15 (inHg)
Zicht 6.2 (mijl) - 10 (km)
Vliegveld
Vliegveld code EDDG

Locatie : Münster Osnabrück Airport
Afstand: 45 (km)

Metar:
EDDG 302050Z AUTO 27011KT 9999 SCT028 BKN039 BKN049 05/02 Q1021 NOSIG

Tijd: 30-01-2023 21:50 CET